createdAt,value
2023-03-06T00:01:50.126Z,2.28
2023-03-06T00:04:54.096Z,2.83
2023-03-06T00:07:57.491Z,5.25
2023-03-06T00:11:01.469Z,6.82
2023-03-06T00:14:04.961Z,6.75
2023-03-06T00:17:08.621Z,6.03
2023-03-06T00:20:12.862Z,3.45
2023-03-06T00:23:16.145Z,2.83
2023-03-06T00:26:19.467Z,1.83
2023-03-06T00:29:22.991Z,1.95
2023-03-06T00:32:27.371Z,1.67
2023-03-06T00:35:32.001Z,3.92
2023-03-06T00:38:36.331Z,2.80
2023-03-06T00:41:39.717Z,2.65
2023-03-06T00:44:43.040Z,7.25
2023-03-06T00:47:46.311Z,4.28
2023-03-06T00:50:50.938Z,6.18
2023-03-06T00:53:54.161Z,4.97
2023-03-06T00:56:57.403Z,3.85
2023-03-06T01:00:01.112Z,4.10
2023-03-06T01:03:04.475Z,3.05
2023-03-06T01:06:08.172Z,3.53
2023-03-06T01:09:11.731Z,4.17
2023-03-06T01:12:15.021Z,4.15
2023-03-06T01:15:18.325Z,3.50
2023-03-06T01:18:21.529Z,3.78
2023-03-06T01:21:25.162Z,3.65
2023-03-06T01:24:29.280Z,5.53
2023-03-06T01:27:33.338Z,3.97
2023-03-06T01:30:36.531Z,5.07
2023-03-06T01:33:39.932Z,3.40
2023-03-06T01:36:43.120Z,3.20
2023-03-06T01:39:46.545Z,2.80
2023-03-06T01:42:51.202Z,1.90
2023-03-06T01:46:12.824Z,1.70
2023-03-06T01:49:27.424Z,0.98
2023-03-06T01:52:49.056Z,1.75
2023-03-06T01:55:52.525Z,1.85
2023-03-06T01:58:55.972Z,2.28
2023-03-06T02:02:02.566Z,1.48
2023-03-06T02:05:07.407Z,1.00
2023-03-06T02:11:19.914Z,1.30
2023-03-06T02:14:24.296Z,2.15
2023-03-06T02:17:28.599Z,1.92
2023-03-06T02:20:48.877Z,1.67
2023-03-06T02:23:58.369Z,2.10
2023-03-06T02:27:05.250Z,2.28
2023-03-06T02:30:11.008Z,1.52
2023-03-06T02:33:19.620Z,1.10
2023-03-06T02:36:22.934Z,7.70
2023-03-06T02:39:28.629Z,2.03
2023-03-06T02:42:32.105Z,1.67
2023-03-06T02:45:46.203Z,1.90
2023-03-06T02:48:49.496Z,2.50
2023-03-06T02:51:52.864Z,1.60
2023-03-06T02:54:56.241Z,1.35
2023-03-06T02:58:00.335Z,1.57
2023-03-06T03:01:05.125Z,1.60
2023-03-06T03:04:09.026Z,1.00
2023-03-06T03:07:13.602Z,1.13
2023-03-06T03:10:17.348Z,2.13
2023-03-06T03:13:21.432Z,1.92
2023-03-06T03:16:25.659Z,1.88
2023-03-06T03:19:29.118Z,1.33
2023-03-06T03:22:32.591Z,1.73
2023-03-06T03:25:35.863Z,1.80
2023-03-06T03:28:39.527Z,1.30
2023-03-06T03:31:42.983Z,1.10
2023-03-06T03:34:46.250Z,1.60
2023-03-06T03:37:49.863Z,1.42
2023-03-06T03:40:53.157Z,1.50
2023-03-06T03:43:56.831Z,1.73
2023-03-06T03:47:00.508Z,1.58
2023-03-06T03:50:04.097Z,1.75
2023-03-06T03:53:07.748Z,2.67
2023-03-06T03:56:11.751Z,1.70
2023-03-06T03:59:22.253Z,1.50
2023-03-06T04:02:40.510Z,2.10
2023-03-06T04:06:01.141Z,2.70
2023-03-06T04:09:05.286Z,3.75
2023-03-06T04:12:09.305Z,1.90
2023-03-06T04:15:14.355Z,1.70
2023-03-06T04:18:18.176Z,1.90
2023-03-06T04:21:22.064Z,2.03
2023-03-06T04:24:25.382Z,1.35
2023-03-06T04:27:28.715Z,1.20
2023-03-06T04:30:32.604Z,1.35
2023-03-06T04:33:36.061Z,1.20
2023-03-06T04:36:39.385Z,1.48
2023-03-06T04:39:47.310Z,1.23
2023-03-06T04:42:50.550Z,1.40
2023-03-06T04:45:53.874Z,1.00
2023-03-06T04:48:57.164Z,2.90
2023-03-06T04:52:00.581Z,2.50
2023-03-06T04:55:09.322Z,1.20
2023-03-06T04:58:14.871Z,1.58
2023-03-06T05:01:18.171Z,1.08
2023-03-06T05:04:21.481Z,1.40
2023-03-06T05:07:24.847Z,1.38
2023-03-06T05:10:28.689Z,1.30
2023-03-06T05:13:31.980Z,1.17
2023-03-06T05:16:35.307Z,0.98
2023-03-06T05:19:38.774Z,1.20
2023-03-06T05:22:42.434Z,1.10
2023-03-06T05:25:45.815Z,1.10
2023-03-06T05:28:49.066Z,1.38
2023-03-06T05:31:52.450Z,1.45
2023-03-06T05:34:56.156Z,0.70
2023-03-06T05:37:59.412Z,1.95
2023-03-06T05:41:04.030Z,2.05
2023-03-06T05:44:07.663Z,1.45
2023-03-06T05:47:12.651Z,1.80
2023-03-06T05:53:18.996Z,1.33
2023-03-06T05:56:22.609Z,1.58
2023-03-06T05:59:30.065Z,1.70
2023-03-06T06:02:33.355Z,1.67
2023-03-06T06:05:40.750Z,1.45
2023-03-06T06:08:44.350Z,2.42
2023-03-06T06:11:47.648Z,2.70
2023-03-06T06:14:50.961Z,1.85
2023-03-06T06:17:54.125Z,1.30
2023-03-06T06:20:57.413Z,1.17
2023-03-06T06:24:00.691Z,1.80
2023-03-06T06:27:04.677Z,1.77
2023-03-06T06:30:09.548Z,1.70
2023-03-06T06:36:25.130Z,1.00
2023-03-06T06:39:29.497Z,2.33
2023-03-06T06:42:39.040Z,2.13
2023-03-06T06:45:45.019Z,1.90
2023-03-06T06:48:57.267Z,1.70
2023-03-06T06:52:00.911Z,18.73
2023-03-06T06:55:04.193Z,2.20
2023-03-06T06:58:07.502Z,1.38
2023-03-06T07:01:13.513Z,2.05
2023-03-06T07:04:17.145Z,2.85
2023-03-06T07:07:20.379Z,3.13
2023-03-06T07:10:24.113Z,1.85
2023-03-06T07:13:27.466Z,1.88
2023-03-06T07:16:30.756Z,2.20
2023-03-06T07:19:34.353Z,2.28
2023-03-06T07:22:50.381Z,2.25
2023-03-06T07:25:55.868Z,2.45
2023-03-06T07:28:59.292Z,2.13
2023-03-06T07:32:02.735Z,2.40
2023-03-06T07:35:19.805Z,2.17
2023-03-06T07:38:24.033Z,2.40
2023-03-06T07:41:27.877Z,2.72
2023-03-06T07:44:31.141Z,2.17
2023-03-06T07:47:34.341Z,2.47
2023-03-06T07:50:39.749Z,1.77
2023-03-06T07:53:43.049Z,2.08
2023-03-06T07:56:46.339Z,2.53
2023-03-06T07:59:49.537Z,1.90
2023-03-06T08:02:52.819Z,46.65
2023-03-06T08:05:56.129Z,3.17
2023-03-06T08:08:59.486Z,5.30
2023-03-06T08:12:03.164Z,3.05
2023-03-06T08:15:06.990Z,3.20
2023-03-06T08:18:10.228Z,1.65
2023-03-06T08:21:16.734Z,2.20
2023-03-06T08:24:20.164Z,2.10
2023-03-06T08:27:23.514Z,1.92
2023-03-06T08:30:26.721Z,3.10
2023-03-06T08:33:29.962Z,2.00
2023-03-06T08:36:33.822Z,1.52
2023-03-06T08:39:37.076Z,1.38
2023-03-06T08:42:40.411Z,1.70
2023-03-06T08:45:43.755Z,1.30
2023-03-06T08:48:50.597Z,1.10
2023-03-06T08:51:53.817Z,1.08
2023-03-06T08:54:58.706Z,1.30
2023-03-06T09:01:08.090Z,2.40
2023-03-06T09:04:12.592Z,2.10
2023-03-06T09:07:15.994Z,1.50
2023-03-06T09:10:21.658Z,1.20
2023-03-06T09:13:24.964Z,2.00
2023-03-06T09:16:28.449Z,1.80
2023-03-06T09:19:32.018Z,1.67
2023-03-06T09:22:35.472Z,1.35
2023-03-06T09:25:38.702Z,1.65
2023-03-06T09:28:42.511Z,1.20
2023-03-06T09:31:46.510Z,1.50
2023-03-06T09:34:50.130Z,1.60
2023-03-06T09:37:53.426Z,1.30
2023-03-06T09:41:00.869Z,2.17
2023-03-06T09:44:09.781Z,1.67
2023-03-06T09:47:34.622Z,1.73
2023-03-06T09:51:02.236Z,2.00
2023-03-06T09:54:16.023Z,1.60
2023-03-06T09:57:28.520Z,1.60
2023-03-06T10:00:57.112Z,2.38
2023-03-06T10:04:18.757Z,4.88
2023-03-06T10:07:47.433Z,4.68
2023-03-06T10:11:06.359Z,2.05
2023-03-06T10:14:28.616Z,2.95
2023-03-06T10:17:42.986Z,2.50
2023-03-06T10:21:13.416Z,2.60
2023-03-06T10:24:32.068Z,3.03
2023-03-06T10:27:57.229Z,3.13
2023-03-06T10:31:17.457Z,2.83
2023-03-06T10:34:29.517Z,6.35
2023-03-06T10:37:32.727Z,7.18
2023-03-06T10:40:51.754Z,6.22
2023-03-06T10:44:01.100Z,10.00
2023-03-06T10:47:35.592Z,4.28
2023-03-06T10:50:39.000Z,2.30
2023-03-06T10:53:51.527Z,1.90
2023-03-06T10:56:55.031Z,1.73
2023-03-06T11:00:07.610Z,2.60
2023-03-06T11:03:21.082Z,1.63
2023-03-06T11:06:36.347Z,2.08
2023-03-06T11:12:44.280Z,1.45
2023-03-06T11:16:25.769Z,2.05
2023-03-06T11:19:30.486Z,3.97
2023-03-06T11:22:34.309Z,3.13
2023-03-06T11:25:51.325Z,3.85
2023-03-06T11:29:19.575Z,3.70
2023-03-06T11:32:30.750Z,4.30
2023-03-06T11:35:44.614Z,5.25
2023-03-06T11:38:53.266Z,4.28
2023-03-06T11:42:07.470Z,5.10
2023-03-06T11:45:38.073Z,5.57
2023-03-06T11:48:53.039Z,5.13
2023-03-06T11:52:00.321Z,4.72
2023-03-06T11:55:03.892Z,6.60
2023-03-06T11:58:23.039Z,7.68
2023-03-06T12:01:42.613Z,5.13
2023-03-06T12:05:07.691Z,5.80
2023-03-06T12:08:22.941Z,6.05
2023-03-06T12:15:16.996Z,5.10
2023-03-06T12:18:44.970Z,5.22
2023-03-06T12:22:06.560Z,4.57
2023-03-06T12:25:26.380Z,5.50
2023-03-06T12:29:08.312Z,5.63
2023-03-06T12:32:35.854Z,4.20
2023-03-06T12:35:52.039Z,4.18
2023-03-06T12:39:05.459Z,4.43
2023-03-06T12:42:34.610Z,5.43
2023-03-06T12:45:39.086Z,4.50
2023-03-06T12:48:46.641Z,4.43
2023-03-06T12:51:50.036Z,3.75
2023-03-06T12:54:55.325Z,4.07
2023-03-06T12:58:37.379Z,3.80
2023-03-06T13:02:09.254Z,3.83
2023-03-06T13:05:18.332Z,4.28
2023-03-06T13:08:44.244Z,4.35
2023-03-06T13:12:18.327Z,4.03
2023-03-06T13:15:30.820Z,4.57
2023-03-06T13:18:34.175Z,3.92
2023-03-06T13:21:43.398Z,3.35
2023-03-06T13:24:46.731Z,4.22
2023-03-06T13:27:55.887Z,3.55
2023-03-06T13:30:59.328Z,3.58
2023-03-06T13:34:33.203Z,4.07
2023-03-06T13:37:39.352Z,3.95
2023-03-06T13:40:42.663Z,3.80
2023-03-06T13:43:46.881Z,3.78
2023-03-06T13:47:20.435Z,4.10
2023-03-06T13:50:34.286Z,4.22
2023-03-06T13:53:48.336Z,4.30
2023-03-06T13:57:02.563Z,3.97
2023-03-06T14:00:11.767Z,3.90
2023-03-06T14:03:48.492Z,4.03
2023-03-06T14:07:14.625Z,4.07
2023-03-06T14:10:23.184Z,3.97
2023-03-06T14:13:45.268Z,3.80
2023-03-06T14:16:51.720Z,3.13
2023-03-06T14:19:58.277Z,2.50
2023-03-06T14:23:22.624Z,3.45
2023-03-06T14:26:28.349Z,2.83
2023-03-06T14:29:34.424Z,2.78
2023-03-06T14:32:39.883Z,2.88
2023-03-06T14:35:43.274Z,3.65
2023-03-06T14:38:52.265Z,2.35
2023-03-06T14:42:17.378Z,2.58
2023-03-06T14:45:21.295Z,1.80
2023-03-06T14:48:27.762Z,2.33
2023-03-06T14:51:34.006Z,3.03
2023-03-06T14:54:40.253Z,2.97
2023-03-06T14:57:43.835Z,2.33
2023-03-06T15:00:50.781Z,2.53
2023-03-06T15:03:58.022Z,2.15
2023-03-06T15:07:01.398Z,2.67
2023-03-06T15:10:07.226Z,2.78
2023-03-06T15:13:25.760Z,2.80
2023-03-06T15:16:31.042Z,2.70
2023-03-06T15:19:41.492Z,2.65
2023-03-06T15:22:44.938Z,4.28
2023-03-06T15:26:00.850Z,4.70
2023-03-06T15:29:10.596Z,4.53
2023-03-06T15:32:36.482Z,5.70
2023-03-06T15:35:40.098Z,5.28
2023-03-06T15:38:46.237Z,3.90
2023-03-06T15:41:49.891Z,3.72
2023-03-06T15:45:04.326Z,6.32
2023-03-06T15:48:17.815Z,4.70
2023-03-06T15:51:21.964Z,12.18
2023-03-06T15:54:25.991Z,14.30
2023-03-06T15:57:30.314Z,26.87
2023-03-06T16:00:40.719Z,28.73
2023-03-06T16:03:46.207Z,24.65
2023-03-06T16:06:50.029Z,17.05
2023-03-06T16:09:54.231Z,25.77
2023-03-06T16:13:05.215Z,29.10
2023-03-06T16:16:15.829Z,8.93
2023-03-06T16:19:27.168Z,14.13
2023-03-06T16:22:32.189Z,19.80
2023-03-06T16:25:35.610Z,19.25
2023-03-06T16:28:42.235Z,14.38
2023-03-06T16:31:45.483Z,16.92
2023-03-06T16:34:49.249Z,19.42
2023-03-06T16:37:53.004Z,24.42
2023-03-06T16:40:57.153Z,23.17
2023-03-06T16:44:00.453Z,34.60
2023-03-06T16:47:04.051Z,28.55
2023-03-06T16:50:16.736Z,27.13
2023-03-06T16:53:20.186Z,23.60
2023-03-06T16:56:23.547Z,22.90
2023-03-06T16:59:26.815Z,21.77
2023-03-06T17:02:30.399Z,21.50
2023-03-06T17:05:35.006Z,20.35
2023-03-06T17:08:38.356Z,20.80
2023-03-06T17:11:44.053Z,20.70
2023-03-06T17:14:47.304Z,21.65
2023-03-06T17:17:52.348Z,21.92
2023-03-06T17:20:56.557Z,24.83
2023-03-06T17:24:02.459Z,25.52
2023-03-06T17:27:06.027Z,25.10
2023-03-06T17:30:10.892Z,25.58
2023-03-06T17:36:17.962Z,25.35
2023-03-06T17:39:21.203Z,25.33
2023-03-06T17:42:24.604Z,24.75
2023-03-06T17:45:29.792Z,24.75
2023-03-06T17:48:33.308Z,22.45
2023-03-06T17:51:36.659Z,22.83
2023-03-06T17:54:40.011Z,19.35
2023-03-06T17:57:43.220Z,19.52
2023-03-06T18:00:46.673Z,17.15
2023-03-06T18:03:51.720Z,17.02
2023-03-06T18:06:55.082Z,16.00
2023-03-06T18:09:58.481Z,14.25
2023-03-06T18:13:01.857Z,13.38
2023-03-06T18:16:06.388Z,12.85
2023-03-06T18:19:12.046Z,12.57
2023-03-06T18:22:16.083Z,11.20
2023-03-06T18:25:19.328Z,10.88
2023-03-06T18:28:22.514Z,10.07
2023-03-06T18:31:34.080Z,10.27
2023-03-06T18:34:38.137Z,10.13
2023-03-06T18:37:41.356Z,13.85
2023-03-06T18:40:44.603Z,10.98
2023-03-06T18:43:53.558Z,13.27
2023-03-06T18:46:56.918Z,13.02
2023-03-06T18:50:00.279Z,14.23
2023-03-06T18:53:03.606Z,11.05
2023-03-06T18:56:07.911Z,15.18
2023-03-06T18:59:16.420Z,16.52
2023-03-06T19:02:21.955Z,11.88
2023-03-06T19:05:25.204Z,14.68
2023-03-06T19:08:28.474Z,12.05
2023-03-06T19:11:32.920Z,11.60
2023-03-06T19:14:37.064Z,11.35
2023-03-06T19:17:40.386Z,12.95
2023-03-06T19:20:44.856Z,11.43
2023-03-06T19:23:48.620Z,10.52
2023-03-06T19:26:52.028Z,9.60
2023-03-06T19:29:55.195Z,9.25
2023-03-06T19:32:58.724Z,9.35
2023-03-06T19:36:03.441Z,10.18
2023-03-06T19:39:08.117Z,9.75
2023-03-06T19:42:13.675Z,9.73
2023-03-06T19:45:17.251Z,9.43
2023-03-06T19:48:22.698Z,9.07
2023-03-06T19:51:27.083Z,8.25
2023-03-06T19:54:32.413Z,8.00
2023-03-06T19:57:35.912Z,8.35
2023-03-06T20:00:39.471Z,7.95
2023-03-06T20:03:43.560Z,7.75
2023-03-06T20:06:47.464Z,8.50
2023-03-06T20:09:50.858Z,8.10
2023-03-06T20:12:54.300Z,8.38
2023-03-06T20:15:58.584Z,8.00
2023-03-06T20:19:02.462Z,7.57
2023-03-06T20:22:05.803Z,7.93
2023-03-06T20:25:09.731Z,7.78
2023-03-06T20:28:12.921Z,7.03
2023-03-06T20:31:21.398Z,6.85
2023-03-06T20:34:26.471Z,7.05
2023-03-06T20:37:30.222Z,7.30
2023-03-06T20:40:33.473Z,7.07
2023-03-06T20:43:36.752Z,7.35
2023-03-06T20:46:40.143Z,6.32
2023-03-06T20:49:43.575Z,6.78
2023-03-06T20:52:46.781Z,5.82
2023-03-06T20:55:50.812Z,7.13
2023-03-06T20:58:54.732Z,6.63
2023-03-06T21:01:58.032Z,6.47
2023-03-06T21:05:01.607Z,9.63
2023-03-06T21:08:05.317Z,13.10
2023-03-06T21:11:08.840Z,12.48
2023-03-06T21:14:13.964Z,15.73
2023-03-06T21:17:17.382Z,11.43
2023-03-06T21:20:20.702Z,9.75
2023-03-06T21:23:23.971Z,10.95
2023-03-06T21:26:30.756Z,8.43
2023-03-06T21:29:34.094Z,8.68
2023-03-06T21:32:37.370Z,10.43
2023-03-06T21:35:45.098Z,6.95
2023-03-06T21:38:49.757Z,21.17
2023-03-06T21:41:53.058Z,4.65
2023-03-06T21:44:56.284Z,4.80
2023-03-06T21:48:00.839Z,8.18
2023-03-06T21:51:24.827Z,4.88
2023-03-06T21:54:29.930Z,4.28
2023-03-06T21:57:33.247Z,4.35
2023-03-06T22:00:36.901Z,7.65
2023-03-06T22:03:40.426Z,8.27
2023-03-06T22:06:43.719Z,5.72
2023-03-06T22:09:47.101Z,4.93
2023-03-06T22:12:50.458Z,58.28
2023-03-06T22:15:54.337Z,4.38
2023-03-06T22:18:57.894Z,3.87
2023-03-06T22:22:01.181Z,6.93
2023-03-06T22:25:05.704Z,4.82
2023-03-06T22:28:09.113Z,4.57
2023-03-06T22:31:16.033Z,4.93
2023-03-06T22:34:19.580Z,4.53
2023-03-06T22:37:22.943Z,4.90
2023-03-06T22:40:26.774Z,6.45
2023-03-06T22:43:30.741Z,7.13
2023-03-06T22:46:34.065Z,8.07
2023-03-06T22:49:38.827Z,7.63
2023-03-06T22:55:45.199Z,7.47
2023-03-06T22:58:48.954Z,8.43
2023-03-06T23:01:52.238Z,9.63
2023-03-06T23:04:55.514Z,8.65
2023-03-06T23:07:58.718Z,10.98
2023-03-06T23:11:02.040Z,11.48
2023-03-06T23:14:23.504Z,11.60
2023-03-06T23:17:45.073Z,11.65
2023-03-06T23:21:11.921Z,13.90
2023-03-06T23:24:37.411Z,12.77
2023-03-06T23:27:40.734Z,10.93
2023-03-06T23:30:44.199Z,11.13
2023-03-06T23:33:48.723Z,10.90
2023-03-06T23:36:51.977Z,11.05
2023-03-06T23:42:59.744Z,8.13
2023-03-06T23:46:03.818Z,8.20
2023-03-06T23:49:08.129Z,8.73
2023-03-06T23:52:11.554Z,10.85
2023-03-06T23:55:14.922Z,11.48
2023-03-06T23:58:19.794Z,10.00
